Flight Track Log - Related Links

Times and Time Zones

All times are in EDT time to prevent confusion due to time zone crossing. See the CPZ5714 flight status page for this flight to view local times or setup timezone preferences in your user account.

Time Position Orientation Groundspeed Altitude Reporting Facility
EDT Latitude Longitude Course Direction KTS MPH feet Rate Location/Type
Wed 08:49:47 PM 44.9333 -93.2333 93° East 168 193 2,500  Level Minneapolis TRACON
Wed 08:51:14 PM 44.9978 -93.2042 18° North 235 270 4,700 1,812 Climbing Minneapolis Center
Wed 08:52:00 PM 44.8654 -92.5681 113° Southeast  Level Estimated
Wed 08:52:16 PM 45.0522 -93.1311 43° Northeast 271 312 7,000  Level Minneapolis Center
Wed 08:53:00 PM 44.8607 -92.4047 125° Southeast  Level Estimated
Wed 08:53:19 PM 45.0794 -93.0125 72° East 302 348 10,100  Level Minneapolis Center
Wed 08:54:00 PM 44.8558 -92.2413 117° Southeast  Level Estimated
Wed 08:54:21 PM 45.0192 -92.9186 132° Southeast 318 366 12,300  Level Minneapolis Center
Wed 08:55:00 PM 44.8507 -92.0803 93° East  Level Estimated
Wed 08:55:23 PM 44.9547 -92.8031 128° Southeast 377 434 13,500  Level Minneapolis Center
Wed 08:56:25 PM 44.8972 -92.6719 122° Southeast 391 450 15,500 1,887 Climbing Minneapolis Center
Wed 08:57:27 PM 44.8367 -92.5358 122° Southeast 407 468 17,400 1,839 Climbing Minneapolis Center
Wed 08:58:29 PM 44.7742 -92.3983 123° Southeast 414 476 19,300 1,694 Climbing Minneapolis Center
Wed 08:59:31 PM 44.7111 -92.2578 122° Southeast 420 483 20,900 1,694 Climbing Minneapolis Center
Wed 09:00:33 PM 44.6328 -92.0825 122° Southeast 436 502 22,800 1,645 Climbing Minneapolis Center
Wed 09:01:35 PM 44.5672 -91.9353 122° Southeast 443 510 24,300 1,258 Climbing Minneapolis Center
Wed 09:02:37 PM 44.4992 -91.7847 122° Southeast 453 521 25,400 968 Climbing Minneapolis Center
Wed 09:03:39 PM 44.4294 -91.6306 122° Southeast 465 535 26,300 919 Climbing Minneapolis Center
Wed 09:04:41 PM 44.3572 -91.4742 123° Southeast 473 544 27,300 968 Climbing Minneapolis Center
Wed 09:05:43 PM 44.2853 -91.3150 122° Southeast 482 555 28,300 968 Climbing Minneapolis Center
Wed 09:06:45 PM 44.2078 -91.1497 123° Southeast 490 564 29,300 1,161 Climbing Minneapolis Center
Wed 09:07:47 PM 44.1353 -90.9903 122° Southeast 491 565 30,700 1,355 Climbing Minneapolis Center
Wed 09:08:49 PM 44.0489 -90.8069 123° Southeast 478 550 32,100 1,210 Climbing Minneapolis Center
Wed 09:09:51 PM 43.9789 -90.6597 123° Southeast 463 533 33,200 768 Climbing Minneapolis Center
Wed 09:10:54 PM 43.9092 -90.5094 123° Southeast 462 532 33,700 474 Climbing Minneapolis Center
Wed 09:11:45 PM 43.8508 -90.3894 124° Southeast 473 544 34,100 531 Climbing Chicago Center
Wed 09:12:47 PM 43.7636 -90.2033 123° Southeast 476 548 34,700 432 Climbing Chicago Center
Wed 09:13:50 PM 43.6889 -90.0497 124° Southeast 480 552 35,000 144 Climbing Chicago Center
Wed 09:14:52 PM 43.6225 -89.8897 120° Southeast 485 558 35,000  Level Chicago Center
Wed 09:15:54 PM 43.6097 -89.7094 96° East 473 544 35,000  Level Chicago Center
Wed 09:16:56 PM 43.5575 -89.5439 113° Southeast 476 548 35,000  Level Chicago Center
Wed 09:17:58 PM 43.4919 -89.3542 115° Southeast 472 543 35,000  Level Chicago Center
Wed 09:19:00 PM 43.4353 -89.1919 116° Southeast 472 543 35,000  Level Chicago Center
Wed 09:20:02 PM 43.3792 -89.0294 115° Southeast 472 543 35,000  Level Chicago Center
Wed 09:21:04 PM 43.3219 -88.8672 116° Southeast 474 545 35,000  Level Chicago Center
Wed 09:22:06 PM 43.2664 -88.7025 115° Southeast 480 552 35,000  Level Chicago Center
Wed 09:23:08 PM 43.2061 -88.5042 113° Southeast 489 563 35,000  Level Chicago Center
Wed 09:24:10 PM 43.1611 -88.3319 110° East 488 562 35,000  Level Chicago Center
Wed 09:25:13 PM 43.1358 -88.1572 101° East 473 544 35,000  Level Chicago Center
Wed 09:26:15 PM 43.1103 -87.9833 101° East 468 539 35,000  Level Chicago Center
Wed 09:27:17 PM 43.0206 -87.8183 127° Southeast 477 549 35,000  Level Chicago Center
Wed 09:28:19 PM 42.8978 -87.7383 154° Southeast 486 559 35,000  Level Chicago Center
Wed 09:29:21 PM 42.7750 -87.6656 156° South 480 552 35,000  Level Chicago Center
Wed 09:30:23 PM 42.6550 -87.5922 156° South 476 548 35,000  Level Chicago Center
Wed 09:31:25 PM 42.5756 -87.4403 125° Southeast 468 539 35,000  Level Chicago Center
Wed 09:32:27 PM 42.5114 -87.2889 120° Southeast 465 535 35,000  Level Chicago Center
Wed 09:33:29 PM 42.4497 -87.1350 118° Southeast 466 536 35,000  Level Chicago Center
Wed 09:34:31 PM 42.4361 -86.9642 96° East 460 529 35,000  Level Chicago Center
Wed 09:35:34 PM 42.4778 -86.7725 74° East 446 513 35,000  Level Chicago Center
Wed 09:36:36 PM 42.5078 -86.6319 74° East 446 513 35,000  Level Chicago Center
Wed 09:37:38 PM 42.5486 -86.4386 74° East 446 513 35,000  Level Chicago Center
Wed 09:38:40 PM 42.5806 -86.2808 75° East 442 509 35,000  Level Chicago Center
Wed 09:39:42 PM 42.6139 -86.1214 74° East 442 509 35,000  Level Chicago Center
Wed 09:40:44 PM 42.6458 -85.9608 75° East 445 512 35,000  Level Chicago Center
Wed 09:41:46 PM 42.6786 -85.8008 74° East 446 513 35,000  Level Chicago Center
Wed 09:42:48 PM 42.7175 -85.6081 75° East 445 512 35,000  Level Chicago Center
Wed 09:43:50 PM 42.7494 -85.4478 75° East 445 512 35,000  Level Chicago Center
Wed 09:44:52 PM 42.7819 -85.2867 75° East 444 511 35,000  Level Chicago Center
Wed 09:45:54 PM 42.8131 -85.1256 75° East 445 512 35,000  Level Chicago Center
Wed 09:46:55 PM 42.8453 -84.9631 75° East 445 512 35,000  Level Chicago Center
Wed 09:47:57 PM 42.8831 -84.7700 75° East 443 510 35,000  Level Chicago Center
Wed 09:48:59 PM 42.9136 -84.6072 76° East 444 511 35,000  Level Chicago Center
Wed 09:50:01 PM 42.9444 -84.4442 75° East 445 512 35,000  Level Chicago Center
Wed 09:50:40 PM 42.9642 -84.3286 77° East 439 505 35,000  Level Cleveland Center
Wed 09:51:40 PM 42.9964 -84.1686 75° East 434 499 35,000  Level Cleveland Center
Wed 09:52:40 PM 43.0264 -84.0028 76° East 434 499 35,000  Level Cleveland Center
Wed 09:53:40 PM 43.0561 -83.8425 76° East 434 499 35,000  Level Cleveland Center
Wed 09:54:40 PM 43.0856 -83.6789 76° East 434 499 35,000  Level Cleveland Center
Wed 09:55:40 PM 43.1122 -83.5353 76° East 429 494 35,000  Level Cleveland Center
Wed 09:56:40 PM 43.1392 -83.3744 77° East 429 494 35,000  Level Cleveland Center
Wed 09:57:40 PM 43.1703 -83.2078 76° East 429 494 35,000  Level Cleveland Center
Wed 09:58:40 PM 43.1967 -83.0464 77° East 429 494 35,000  Level Cleveland Center
Wed 09:59:40 PM 43.2269 -82.8911 75° East 429 494 35,000  Level Cleveland Center
Wed 10:00:40 PM 43.2489 -82.7294 79° East 429 494 35,000  Level Cleveland Center
Wed 10:01:40 PM 43.2372 -82.5608 95° East 429 494 35,000  Level Cleveland Center
Wed 10:02:40 PM 43.2339 -82.3925 91° East 434 499 35,000  Level Cleveland Center
Wed 10:03:40 PM 43.2281 -82.2214 93° East 440 506 35,000  Level Cleveland Center
Wed 10:04:26 PM 43.2167 -82.0833 96° East 450 518 35,000  Level Toronto Center
Wed 10:05:26 PM 43.2167 -81.9000 90° East 440 506 35,000  Level Toronto Center
Wed 10:06:26 PM 43.2167 -81.7333 90° East 440 506 35,000  Level Toronto Center
Wed 10:07:26 PM 43.2000 -81.5500 97° East 440 506 35,000  Level Toronto Center
Wed 10:08:26 PM 43.2000 -81.4000 90° East 440 506 35,000  Level Toronto Center
Wed 10:09:26 PM 43.1833 -81.2333 98° East 440 506 35,000  Level Toronto Center
Wed 10:10:26 PM 43.1833 -81.0500 90° East 440 506 35,000  Level Toronto Center
Wed 10:11:26 PM 43.1833 -80.8833 90° East 440 506 35,000  Level Toronto Center
Wed 10:12:26 PM 43.1833 -80.7333 90° East 440 506 35,000  Level Toronto Center
Wed 10:13:26 PM 43.1833 -80.5667 90° East 440 506 35,000  Level Toronto Center
Wed 10:14:26 PM 43.1667 -80.4167 99° East 440 506 35,000  Level Toronto Center
Wed 10:15:26 PM 43.1667 -80.2333 90° East 440 506 35,000  Level Toronto Center
Wed 10:16:26 PM 43.1500 -80.0667 98° East 440 506 35,000  Level Toronto Center
Wed 10:17:26 PM 43.1500 -79.8833 90° East 440 506 35,000 -400 Level Toronto Center
Wed 10:18:26 PM 43.1500 -79.7167 90° East 450 518 34,200 -900 Descending Toronto Center
Wed 10:19:26 PM 43.1333 -79.5500 98° East 460 529 33,200 -1,000 Descending Toronto Center
Wed 10:20:26 PM 43.1333 -79.3667 90° East 470 541 32,200 -1,000 Descending Toronto Center
Wed 10:21:26 PM 43.1167 -79.2000 98° East 480 552 31,200 -600 Descending Toronto Center
Wed 10:22:26 PM 43.1167 -79.0000 90° East 480 552 31,000 -100 Descending Toronto Center
Wed 10:23:26 PM 43.1000 -78.8167 97° East 480 552 31,000  Level Toronto Center
Wed 10:24:28 PM 43.1028 -78.6553 89° East 478 550 31,000  Level Cleveland Center
Wed 10:25:28 PM 43.0933 -78.4736 94° East 478 550 31,000  Level Cleveland Center
Wed 10:26:28 PM 43.0836 -78.2922 94° East 478 550 31,000  Level Cleveland Center
Wed 10:27:28 PM 43.0717 -78.1164 95° East 478 550 31,000 -350 Level Cleveland Center
Wed 10:28:28 PM 43.0614 -77.9347 94° East 478 550 30,300 -700 Descending Cleveland Center
Wed 10:29:28 PM 43.0539 -77.7903 94° East 478 550 29,600 -650 Descending Cleveland Center
Wed 10:30:28 PM 43.0428 -77.5947 94° East 478 550 29,000 -213 Descending Cleveland Center
Wed 10:32:17 PM 43.0228 -77.2806 95° East 472 543 29,000  Level Boston Center
Wed 10:33:18 PM 43.0117 -77.1006 95° East 472 543 29,000  Level Boston Center
Wed 10:34:18 PM 42.9997 -76.9292 95° East 466 536 29,000  Level Boston Center
Wed 10:35:17 PM 42.9878 -76.7494 95° East 466 536 29,000  Level Boston Center
Wed 10:36:17 PM 42.9756 -76.5753 95° East 466 536 29,000  Level Boston Center
Wed 10:37:18 PM 42.9631 -76.3986 95° East 466 536 29,000  Level Boston Center
Wed 10:38:18 PM 42.9503 -76.2217 96° East 466 536 29,000  Level Boston Center
Wed 10:39:16 PM 42.9375 -76.0422 95° East 466 536 29,000 -300 Level Boston Center
Wed 10:40:18 PM 42.9219 -75.8656 97° East 466 536 28,400 -787 Descending Boston Center
Wed 10:41:18 PM 42.9103 -75.7003 95° East 459 528 27,400 -1,450 Descending Boston Center
Wed 10:42:18 PM 42.8944 -75.5153 97° East 444 511 25,500 -2,033 Descending Boston Center
Wed 10:43:19 PM 42.8822 -75.3531 96° East 444 511 23,300 -2,218 Descending Boston Center
Wed 10:44:17 PM 42.8714 -75.1967 95° East 439 505 21,100 -2,150 Descending Boston Center
Wed 10:45:19 PM 42.8583 -75.0489 97° East 416 479 19,000 -2,066 Descending Boston Center
Wed 10:46:19 PM 42.8469 -74.9039 96° East 396 456 16,900 -2,106 Descending Boston Center
Wed 10:46:53 PM 42.8361 -74.8158 99° East 381 438 15,700 -1,969 Descending Boston Center
Wed 10:47:23 PM 42.8333 -74.7506 93° East 375 432 14,800 -1,835 Descending Boston Center
Wed 10:48:18 PM 42.8211 -74.6311 98° East 380 437 13,100 -1,930 Descending Boston Center
Wed 10:49:18 PM 42.8072 -74.4806 97° East 374 430 11,100 -1,400 Descending Boston Center
Wed 10:50:18 PM 42.8028 -74.3728 93° East 338 389 10,300 -1,339 Descending Boston Center
Wed 10:51:19 PM 42.8069 -74.2456 87° East 304 350 8,400 -1,916 Descending Boston Center
Wed 10:52:17 PM 42.8128 -74.1439 85° East 299 344 6,500 -1,969 Descending Boston Center
Wed 10:53:27 PM 42.8189 -74.0111 86° East 287 330 4,200 -1,835 Descending Boston Center
Wed 10:54:18 PM 42.8264 -73.9178 84° East 282 325 2,800 -750 Descending Boston Center
Wed 10:55:19 PM 42.8297 -73.8244 87° East 282 325 2,800 -919 Level Boston Center
Wed 10:56:22 PM 42.7861 -73.8094 166° South 129 148 900 -1,810 Descending Boston Center

Login

Don't have an account? Register now (free) for customized features, flight alerts, and more!